sensor_id;sensor_type;location;lat;lon;timestamp;P1;durP1;ratioP1;P2;durP2;ratioP2
26600;SDS011;14241;49.260;10.496;2024-01-15T00:00:07;66.75;;;36.55;;
26600;SDS011;14241;49.260;10.496;2024-01-15T00:02:33;68.45;;;37.38;;
26600;SDS011;14241;49.260;10.496;2024-01-15T00:04:59;66.97;;;35.65;;
26600;SDS011;14241;49.260;10.496;2024-01-15T00:07:24;61.55;;;35.33;;
26600;SDS011;14241;49.260;10.496;2024-01-15T00:09:49;66.47;;;36.53;;
26600;SDS011;14241;49.260;10.496;2024-01-15T00:12:14;63.88;;;34.40;;
26600;SDS011;14241;49.260;10.496;2024-01-15T00:14:40;66.28;;;35.80;;
26600;SDS011;14241;49.260;10.496;2024-01-15T00:17:05;65.63;;;33.80;;
26600;SDS011;14241;49.260;10.496;2024-01-15T00:19:30;62.78;;;35.28;;
26600;SDS011;14241;49.260;10.496;2024-01-15T00:21:57;73.72;;;38.92;;
26600;SDS011;14241;49.260;10.496;2024-01-15T00:24:22;70.20;;;36.13;;
26600;SDS011;14241;49.260;10.496;2024-01-15T00:26:48;68.20;;;34.97;;
26600;SDS011;14241;49.260;10.496;2024-01-15T00:29:13;68.22;;;37.70;;
26600;SDS011;14241;49.260;10.496;2024-01-15T00:31:38;63.35;;;32.20;;
26600;SDS011;14241;49.260;10.496;2024-01-15T00:34:03;70.10;;;37.95;;
26600;SDS011;14241;49.260;10.496;2024-01-15T00:36:29;68.85;;;34.22;;
26600;SDS011;14241;49.260;10.496;2024-01-15T00:38:54;65.10;;;35.70;;
26600;SDS011;14241;49.260;10.496;2024-01-15T00:41:19;69.00;;;36.80;;
26600;SDS011;14241;49.260;10.496;2024-01-15T00:43:45;67.47;;;37.55;;
26600;SDS011;14241;49.260;10.496;2024-01-15T00:46:10;67.15;;;34.70;;
26600;SDS011;14241;49.260;10.496;2024-01-15T00:48:36;67.60;;;35.92;;
26600;SDS011;14241;49.260;10.496;2024-01-15T00:51:01;67.63;;;34.58;;
26600;SDS011;14241;49.260;10.496;2024-01-15T00:53:26;67.78;;;35.80;;
26600;SDS011;14241;49.260;10.496;2024-01-15T00:55:52;68.32;;;34.90;;
26600;SDS011;14241;49.260;10.496;2024-01-15T00:58:18;67.43;;;35.95;;
26600;SDS011;14241;49.260;10.496;2024-01-15T01:00:43;61.10;;;33.22;;
26600;SDS011;14241;49.260;10.496;2024-01-15T01:03:09;68.43;;;35.83;;
26600;SDS011;14241;49.260;10.496;2024-01-15T01:05:34;65.07;;;35.83;;
26600;SDS011;14241;49.260;10.496;2024-01-15T01:07:59;66.38;;;34.78;;
26600;SDS011;14241;49.260;10.496;2024-01-15T01:10:25;61.67;;;32.63;;
26600;SDS011;14241;49.260;10.496;2024-01-15T01:12:50;62.72;;;33.88;;
26600;SDS011;14241;49.260;10.496;2024-01-15T01:15:15;63.42;;;33.08;;
26600;SDS011;14241;49.260;10.496;2024-01-15T01:17:40;62.85;;;33.05;;
26600;SDS011;14241;49.260;10.496;2024-01-15T01:20:06;61.58;;;32.78;;
26600;SDS011;14241;49.260;10.496;2024-01-15T01:22:33;55.35;;;30.60;;
26600;SDS011;14241;49.260;10.496;2024-01-15T01:24:58;56.95;;;30.60;;
26600;SDS011;14241;49.260;10.496;2024-01-15T01:27:24;60.38;;;33.20;;
26600;SDS011;14241;49.260;10.496;2024-01-15T01:29:49;56.63;;;28.55;;
26600;SDS011;14241;49.260;10.496;2024-01-15T01:32:14;63.20;;;32.75;;
26600;SDS011;14241;49.260;10.496;2024-01-15T01:34:40;57.88;;;31.90;;
26600;SDS011;14241;49.260;10.496;2024-01-15T01:37:07;59.78;;;31.45;;
26600;SDS011;14241;49.260;10.496;2024-01-15T01:39:32;56.28;;;29.65;;
26600;SDS011;14241;49.260;10.496;2024-01-15T01:41:57;62.83;;;31.98;;
26600;SDS011;14241;49.260;10.496;2024-01-15T01:44:23;57.85;;;31.90;;
26600;SDS011;14241;49.260;10.496;2024-01-15T01:46:48;59.80;;;31.80;;
26600;SDS011;14241;49.260;10.496;2024-01-15T01:49:13;62.47;;;31.38;;
26600;SDS011;14241;49.260;10.496;2024-01-15T01:51:39;61.30;;;31.08;;
26600;SDS011;14241;49.260;10.496;2024-01-15T01:54:04;55.53;;;29.75;;
26600;SDS011;14241;49.260;10.496;2024-01-15T01:56:30;56.33;;;28.98;;
26600;SDS011;14241;49.260;10.496;2024-01-15T01:58:55;58.05;;;30.58;;
26600;SDS011;14241;49.260;10.496;2024-01-15T02:01:21;59.33;;;31.42;;
26600;SDS011;14241;49.260;10.496;2024-01-15T02:03:46;56.35;;;28.30;;
26600;SDS011;14241;49.260;10.496;2024-01-15T02:06:12;57.03;;;30.10;;
26600;SDS011;14241;49.260;10.496;2024-01-15T02:08:37;58.67;;;30.70;;
26600;SDS011;14241;49.260;10.496;2024-01-15T02:11:03;57.95;;;30.55;;
26600;SDS011;14241;49.260;10.496;2024-01-15T02:13:28;60.60;;;31.23;;
26600;SDS011;14241;49.260;10.496;2024-01-15T02:15:53;56.60;;;29.67;;
26600;SDS011;14241;49.260;10.496;2024-01-15T02:18:19;55.42;;;27.35;;
26600;SDS011;14241;49.260;10.496;2024-01-15T02:20:45;53.88;;;29.20;;
26600;SDS011;14241;49.260;10.496;2024-01-15T02:23:14;49.33;;;26.95;;
26600;SDS011;14241;49.260;10.496;2024-01-15T02:25:39;53.35;;;28.02;;
26600;SDS011;14241;49.260;10.496;2024-01-15T02:28:05;48.40;;;25.95;;
26600;SDS011;14241;49.260;10.496;2024-01-15T02:30:31;44.72;;;25.60;;
26600;SDS011;14241;49.260;10.496;2024-01-15T02:32:56;43.55;;;25.45;;
26600;SDS011;14241;49.260;10.496;2024-01-15T02:35:21;51.35;;;27.38;;
26600;SDS011;14241;49.260;10.496;2024-01-15T02:37:47;42.53;;;23.63;;
26600;SDS011;14241;49.260;10.496;2024-01-15T02:40:12;41.63;;;24.17;;
26600;SDS011;14241;49.260;10.496;2024-01-15T02:42:37;42.35;;;24.10;;
26600;SDS011;14241;49.260;10.496;2024-01-15T02:45:03;45.33;;;24.92;;
26600;SDS011;14241;49.260;10.496;2024-01-15T02:47:28;51.28;;;29.23;;
26600;SDS011;14241;49.260;10.496;2024-01-15T02:49:53;46.50;;;24.70;;
26600;SDS011;14241;49.260;10.496;2024-01-15T02:52:19;51.95;;;27.15;;
26600;SDS011;14241;49.260;10.496;2024-01-15T02:54:44;47.17;;;25.20;;
26600;SDS011;14241;49.260;10.496;2024-01-15T02:57:09;50.75;;;28.33;;
26600;SDS011;14241;49.260;10.496;2024-01-15T02:59:35;45.50;;;24.08;;
26600;SDS011;14241;49.260;10.496;2024-01-15T03:02:00;59.58;;;32.15;;
26600;SDS011;14241;49.260;10.496;2024-01-15T03:04:25;56.17;;;28.98;;
26600;SDS011;14241;49.260;10.496;2024-01-15T03:06:50;51.45;;;27.50;;
26600;SDS011;14241;49.260;10.496;2024-01-15T03:09:16;49.40;;;27.95;;
26600;SDS011;14241;49.260;10.496;2024-01-15T03:11:41;47.83;;;24.98;;
26600;SDS011;14241;49.260;10.496;2024-01-15T03:14:06;52.30;;;27.95;;
26600;SDS011;14241;49.260;10.496;2024-01-15T03:16:32;48.10;;;26.85;;
26600;SDS011;14241;49.260;10.496;2024-01-15T03:18:57;48.65;;;26.70;;
26600;SDS011;14241;49.260;10.496;2024-01-15T03:21:22;46.47;;;25.83;;
26600;SDS011;14241;49.260;10.496;2024-01-15T03:23:47;47.40;;;26.42;;
26600;SDS011;14241;49.260;10.496;2024-01-15T03:26:13;46.47;;;26.67;;
26600;SDS011;14241;49.260;10.496;2024-01-15T03:28:38;48.08;;;25.15;;
26600;SDS011;14241;49.260;10.496;2024-01-15T03:31:03;47.10;;;24.75;;
26600;SDS011;14241;49.260;10.496;2024-01-15T03:33:28;44.65;;;25.38;;
26600;SDS011;14241;49.260;10.496;2024-01-15T03:35:54;46.72;;;24.77;;
26600;SDS011;14241;49.260;10.496;2024-01-15T03:38:19;43.92;;;26.02;;
26600;SDS011;14241;49.260;10.496;2024-01-15T03:40:44;46.38;;;24.10;;
26600;SDS011;14241;49.260;10.496;2024-01-15T03:43:09;49.92;;;23.95;;
26600;SDS011;14241;49.260;10.496;2024-01-15T03:45:35;53.67;;;26.70;;
26600;SDS011;14241;49.260;10.496;2024-01-15T03:48:00;47.42;;;25.38;;
26600;SDS011;14241;49.260;10.496;2024-01-15T03:50:25;48.10;;;25.08;;
26600;SDS011;14241;49.260;10.496;2024-01-15T03:52:51;46.88;;;25.15;;
26600;SDS011;14241;49.260;10.496;2024-01-15T03:55:16;46.92;;;26.35;;
26600;SDS011;14241;49.260;10.496;2024-01-15T03:57:41;45.75;;;26.55;;
26600;SDS011;14241;49.260;10.496;2024-01-15T04:00:07;44.88;;;24.85;;
26600;SDS011;14241;49.260;10.496;2024-01-15T04:02:32;47.03;;;25.65;;
26600;SDS011;14241;49.260;10.496;2024-01-15T04:04:57;44.10;;;23.98;;
26600;SDS011;14241;49.260;10.496;2024-01-15T04:07:23;45.03;;;24.10;;
26600;SDS011;14241;49.260;10.496;2024-01-15T04:09:48;45.05;;;25.73;;
26600;SDS011;14241;49.260;10.496;2024-01-15T04:12:13;45.00;;;25.77;;
26600;SDS011;14241;49.260;10.496;2024-01-15T04:14:38;46.65;;;26.48;;
26600;SDS011;14241;49.260;10.496;2024-01-15T04:17:04;41.63;;;22.58;;
26600;SDS011;14241;49.260;10.496;2024-01-15T04:19:29;48.72;;;25.65;;
26600;SDS011;14241;49.260;10.496;2024-01-15T04:21:54;48.65;;;26.25;;
26600;SDS011;14241;49.260;10.496;2024-01-15T04:24:20;44.80;;;24.13;;
26600;SDS011;14241;49.260;10.496;2024-01-15T04:26:45;46.30;;;26.25;;
26600;SDS011;14241;49.260;10.496;2024-01-15T04:29:10;47.85;;;24.92;;
26600;SDS011;14241;49.260;10.496;2024-01-15T04:31:36;44.30;;;25.30;;
26600;SDS011;14241;49.260;10.496;2024-01-15T04:34:01;44.42;;;24.73;;
26600;SDS011;14241;49.260;10.496;2024-01-15T04:36:26;45.45;;;25.25;;
26600;SDS011;14241;49.260;10.496;2024-01-15T04:38:51;45.95;;;25.35;;
26600;SDS011;14241;49.260;10.496;2024-01-15T04:41:17;43.65;;;24.95;;
26600;SDS011;14241;49.260;10.496;2024-01-15T04:43:42;46.80;;;25.77;;
26600;SDS011;14241;49.260;10.496;2024-01-15T04:46:07;48.92;;;26.80;;
26600;SDS011;14241;49.260;10.496;2024-01-15T04:48:33;43.67;;;24.83;;
26600;SDS011;14241;49.260;10.496;2024-01-15T04:50:58;44.05;;;24.98;;
26600;SDS011;14241;49.260;10.496;2024-01-15T04:53:24;46.33;;;24.15;;
26600;SDS011;14241;49.260;10.496;2024-01-15T04:55:49;40.35;;;23.92;;
26600;SDS011;14241;49.260;10.496;2024-01-15T04:58:15;41.60;;;23.95;;
26600;SDS011;14241;49.260;10.496;2024-01-15T05:00:40;45.83;;;25.55;;
26600;SDS011;14241;49.260;10.496;2024-01-15T05:03:05;45.75;;;25.63;;
26600;SDS011;14241;49.260;10.496;2024-01-15T05:05:31;49.88;;;25.85;;
26600;SDS011;14241;49.260;10.496;2024-01-15T05:07:56;44.70;;;24.92;;
26600;SDS011;14241;49.260;10.496;2024-01-15T05:10:21;45.25;;;24.00;;
26600;SDS011;14241;49.260;10.496;2024-01-15T05:12:46;43.55;;;24.85;;
26600;SDS011;14241;49.260;10.496;2024-01-15T05:15:12;41.58;;;23.42;;
26600;SDS011;14241;49.260;10.496;2024-01-15T05:17:37;42.35;;;23.05;;
26600;SDS011;14241;49.260;10.496;2024-01-15T05:20:02;40.08;;;24.65;;
26600;SDS011;14241;49.260;10.496;2024-01-15T05:22:28;40.78;;;23.25;;
26600;SDS011;14241;49.260;10.496;2024-01-15T05:24:53;44.85;;;23.33;;
26600;SDS011;14241;49.260;10.496;2024-01-15T05:27:18;39.97;;;22.88;;
26600;SDS011;14241;49.260;10.496;2024-01-15T05:29:44;40.30;;;22.98;;
26600;SDS011;14241;49.260;10.496;2024-01-15T05:32:09;40.65;;;23.15;;
26600;SDS011;14241;49.260;10.496;2024-01-15T05:34:34;37.83;;;22.17;;
26600;SDS011;14241;49.260;10.496;2024-01-15T05:37:00;38.72;;;22.45;;
26600;SDS011;14241;49.260;10.496;2024-01-15T05:39:25;39.53;;;23.40;;
26600;SDS011;14241;49.260;10.496;2024-01-15T05:41:50;38.03;;;23.30;;
26600;SDS011;14241;49.260;10.496;2024-01-15T05:44:16;40.85;;;23.33;;
26600;SDS011;14241;49.260;10.496;2024-01-15T05:46:41;37.45;;;22.25;;
26600;SDS011;14241;49.260;10.496;2024-01-15T05:49:06;39.67;;;23.33;;
26600;SDS011;14241;49.260;10.496;2024-01-15T05:51:31;44.78;;;23.88;;
26600;SDS011;14241;49.260;10.496;2024-01-15T05:53:57;39.50;;;22.75;;
26600;SDS011;14241;49.260;10.496;2024-01-15T05:56:23;42.33;;;23.25;;
26600;SDS011;14241;49.260;10.496;2024-01-15T05:58:49;39.83;;;22.73;;
26600;SDS011;14241;49.260;10.496;2024-01-15T06:01:14;38.40;;;23.00;;
26600;SDS011;14241;49.260;10.496;2024-01-15T06:03:39;37.00;;;21.50;;
26600;SDS011;14241;49.260;10.496;2024-01-15T06:06:05;41.50;;;21.50;;
26600;SDS011;14241;49.260;10.496;2024-01-15T06:08:31;39.40;;;23.50;;
26600;SDS011;14241;49.260;10.496;2024-01-15T06:10:56;41.90;;;23.67;;
26600;SDS011;14241;49.260;10.496;2024-01-15T06:13:22;45.25;;;24.10;;
26600;SDS011;14241;49.260;10.496;2024-01-15T06:15:47;39.30;;;22.88;;
26600;SDS011;14241;49.260;10.496;2024-01-15T06:18:12;43.17;;;24.30;;
26600;SDS011;14241;49.260;10.496;2024-01-15T06:20:37;38.65;;;23.02;;
26600;SDS011;14241;49.260;10.496;2024-01-15T06:23:03;38.17;;;22.83;;
26600;SDS011;14241;49.260;10.496;2024-01-15T06:25:29;39.45;;;22.73;;
26600;SDS011;14241;49.260;10.496;2024-01-15T06:27:54;37.50;;;22.35;;
26600;SDS011;14241;49.260;10.496;2024-01-15T06:30:19;35.38;;;21.67;;
26600;SDS011;14241;49.260;10.496;2024-01-15T06:32:44;32.85;;;20.38;;
26600;SDS011;14241;49.260;10.496;2024-01-15T06:35:10;34.85;;;21.98;;
26600;SDS011;14241;49.260;10.496;2024-01-15T06:37:36;37.55;;;22.23;;
26600;SDS011;14241;49.260;10.496;2024-01-15T06:40:02;32.13;;;20.90;;
26600;SDS011;14241;49.260;10.496;2024-01-15T06:42:28;33.33;;;19.98;;
26600;SDS011;14241;49.260;10.496;2024-01-15T06:44:53;29.65;;;17.85;;
26600;SDS011;14241;49.260;10.496;2024-01-15T06:47:18;35.95;;;21.52;;
26600;SDS011;14241;49.260;10.496;2024-01-15T06:49:44;36.20;;;22.25;;
26600;SDS011;14241;49.260;10.496;2024-01-15T06:52:09;37.97;;;22.27;;
26600;SDS011;14241;49.260;10.496;2024-01-15T06:54:35;38.00;;;23.38;;
26600;SDS011;14241;49.260;10.496;2024-01-15T06:57:00;38.05;;;22.48;;
26600;SDS011;14241;49.260;10.496;2024-01-15T06:59:25;34.33;;;20.73;;
26600;SDS011;14241;49.260;10.496;2024-01-15T07:01:50;33.22;;;20.33;;
26600;SDS011;14241;49.260;10.496;2024-01-15T07:04:16;35.63;;;22.23;;
26600;SDS011;14241;49.260;10.496;2024-01-15T07:06:41;33.33;;;20.75;;
26600;SDS011;14241;49.260;10.496;2024-01-15T07:09:06;34.00;;;20.70;;
26600;SDS011;14241;49.260;10.496;2024-01-15T07:11:33;34.47;;;20.73;;
26600;SDS011;14241;49.260;10.496;2024-01-15T07:13:58;34.95;;;20.27;;
26600;SDS011;14241;49.260;10.496;2024-01-15T07:16:23;30.52;;;19.85;;
26600;SDS011;14241;49.260;10.496;2024-01-15T07:18:48;30.52;;;20.10;;
26600;SDS011;14241;49.260;10.496;2024-01-15T07:21:14;33.80;;;20.70;;
26600;SDS011;14241;49.260;10.496;2024-01-15T07:23:39;31.90;;;20.75;;
26600;SDS011;14241;49.260;10.496;2024-01-15T07:26:05;29.67;;;18.85;;
26600;SDS011;14241;49.260;10.496;2024-01-15T07:28:30;28.90;;;19.50;;
26600;SDS011;14241;49.260;10.496;2024-01-15T07:30:56;29.45;;;18.52;;
26600;SDS011;14241;49.260;10.496;2024-01-15T07:33:21;32.00;;;19.48;;
26600;SDS011;14241;49.260;10.496;2024-01-15T07:35:47;29.13;;;18.20;;
26600;SDS011;14241;49.260;10.496;2024-01-15T07:38:12;30.77;;;19.33;;
26600;SDS011;14241;49.260;10.496;2024-01-15T07:40:37;28.35;;;17.55;;
26600;SDS011;14241;49.260;10.496;2024-01-15T07:43:02;24.73;;;17.83;;
26600;SDS011;14241;49.260;10.496;2024-01-15T07:45:28;29.13;;;19.17;;
26600;SDS011;14241;49.260;10.496;2024-01-15T07:47:53;27.35;;;19.33;;
26600;SDS011;14241;49.260;10.496;2024-01-15T07:50:18;33.92;;;19.73;;
26600;SDS011;14241;49.260;10.496;2024-01-15T07:52:44;24.40;;;17.35;;
26600;SDS011;14241;49.260;10.496;2024-01-15T07:55:09;31.73;;;20.42;;
26600;SDS011;14241;49.260;10.496;2024-01-15T07:57:34;25.67;;;17.63;;
26600;SDS011;14241;49.260;10.496;2024-01-15T08:00:01;30.00;;;18.25;;
26600;SDS011;14241;49.260;10.496;2024-01-15T08:02:27;28.17;;;18.73;;
26600;SDS011;14241;49.260;10.496;2024-01-15T08:04:52;30.27;;;18.48;;
26600;SDS011;14241;49.260;10.496;2024-01-15T08:07:17;27.23;;;18.38;;
26600;SDS011;14241;49.260;10.496;2024-01-15T08:09:43;26.92;;;17.17;;
26600;SDS011;14241;49.260;10.496;2024-01-15T08:12:08;28.63;;;18.20;;
26600;SDS011;14241;49.260;10.496;2024-01-15T08:14:35;28.33;;;18.38;;
26600;SDS011;14241;49.260;10.496;2024-01-15T08:17:00;32.03;;;19.45;;
26600;SDS011;14241;49.260;10.496;2024-01-15T08:19:26;28.70;;;18.48;;
26600;SDS011;14241;49.260;10.496;2024-01-15T08:21:52;25.33;;;18.48;;
26600;SDS011;14241;49.260;10.496;2024-01-15T08:24:18;28.48;;;18.55;;
26600;SDS011;14241;49.260;10.496;2024-01-15T08:26:43;27.08;;;18.20;;
26600;SDS011;14241;49.260;10.496;2024-01-15T08:29:09;26.98;;;16.25;;
26600;SDS011;14241;49.260;10.496;2024-01-15T08:31:34;28.80;;;18.45;;
26600;SDS011;14241;49.260;10.496;2024-01-15T08:33:59;30.23;;;18.83;;
26600;SDS011;14241;49.260;10.496;2024-01-15T08:36:26;28.60;;;18.50;;
26600;SDS011;14241;49.260;10.496;2024-01-15T08:38:52;28.80;;;18.98;;
26600;SDS011;14241;49.260;10.496;2024-01-15T08:41:17;25.65;;;17.50;;
26600;SDS011;14241;49.260;10.496;2024-01-15T08:43:42;27.92;;;15.73;;
26600;SDS011;14241;49.260;10.496;2024-01-15T08:46:07;26.30;;;17.40;;
26600;SDS011;14241;49.260;10.496;2024-01-15T08:48:33;27.60;;;17.95;;
26600;SDS011;14241;49.260;10.496;2024-01-15T08:50:58;28.35;;;17.88;;
26600;SDS011;14241;49.260;10.496;2024-01-15T08:53:23;27.35;;;15.90;;
26600;SDS011;14241;49.260;10.496;2024-01-15T08:55:49;23.35;;;16.27;;
26600;SDS011;14241;49.260;10.496;2024-01-15T08:58:15;25.45;;;16.70;;
26600;SDS011;14241;49.260;10.496;2024-01-15T09:00:40;27.17;;;17.75;;
26600;SDS011;14241;49.260;10.496;2024-01-15T09:03:05;24.30;;;16.02;;
26600;SDS011;14241;49.260;10.496;2024-01-15T09:05:31;27.40;;;16.63;;
26600;SDS011;14241;49.260;10.496;2024-01-15T09:07:56;26.05;;;16.77;;
26600;SDS011;14241;49.260;10.496;2024-01-15T09:10:21;23.83;;;16.42;;
26600;SDS011;14241;49.260;10.496;2024-01-15T09:12:47;24.58;;;16.15;;
26600;SDS011;14241;49.260;10.496;2024-01-15T09:15:14;23.92;;;15.93;;
26600;SDS011;14241;49.260;10.496;2024-01-15T09:17:39;23.10;;;15.73;;
26600;SDS011;14241;49.260;10.496;2024-01-15T09:20:05;25.60;;;15.40;;
26600;SDS011;14241;49.260;10.496;2024-01-15T09:22:30;20.83;;;13.55;;
26600;SDS011;14241;49.260;10.496;2024-01-15T09:24:56;21.58;;;15.35;;
26600;SDS011;14241;49.260;10.496;2024-01-15T09:27:21;23.00;;;15.95;;
26600;SDS011;14241;49.260;10.496;2024-01-15T09:29:46;23.27;;;16.40;;
26600;SDS011;14241;49.260;10.496;2024-01-15T09:32:12;23.27;;;15.40;;
26600;SDS011;14241;49.260;10.496;2024-01-15T09:34:37;21.60;;;15.18;;
26600;SDS011;14241;49.260;10.496;2024-01-15T09:37:03;23.25;;;14.65;;
26600;SDS011;14241;49.260;10.496;2024-01-15T09:39:29;22.83;;;15.55;;
26600;SDS011;14241;49.260;10.496;2024-01-15T09:41:54;23.65;;;14.45;;
26600;SDS011;14241;49.260;10.496;2024-01-15T09:44:19;21.27;;;14.27;;
26600;SDS011;14241;49.260;10.496;2024-01-15T09:46:46;21.63;;;14.85;;
26600;SDS011;14241;49.260;10.496;2024-01-15T09:49:11;22.20;;;15.00;;
26600;SDS011;14241;49.260;10.496;2024-01-15T09:51:37;23.88;;;15.82;;
26600;SDS011;14241;49.260;10.496;2024-01-15T09:54:04;20.42;;;14.57;;
26600;SDS011;14241;49.260;10.496;2024-01-15T09:56:29;23.52;;;15.18;;
26600;SDS011;14241;49.260;10.496;2024-01-15T09:58:55;26.13;;;16.77;;
26600;SDS011;14241;49.260;10.496;2024-01-15T10:01:22;22.33;;;14.77;;
26600;SDS011;14241;49.260;10.496;2024-01-15T10:03:47;21.55;;;13.85;;
26600;SDS011;14241;49.260;10.496;2024-01-15T10:06:16;18.38;;;13.15;;
26600;SDS011;14241;49.260;10.496;2024-01-15T10:08:49;21.02;;;14.73;;
26600;SDS011;14241;49.260;10.496;2024-01-15T10:11:14;21.77;;;15.00;;
26600;SDS011;14241;49.260;10.496;2024-01-15T10:13:40;24.95;;;15.85;;
26600;SDS011;14241;49.260;10.496;2024-01-15T10:16:05;23.20;;;14.85;;
26600;SDS011;14241;49.260;10.496;2024-01-15T10:18:31;21.30;;;14.27;;
26600;SDS011;14241;49.260;10.496;2024-01-15T10:20:57;21.88;;;13.60;;
26600;SDS011;14241;49.260;10.496;2024-01-15T10:23:24;19.63;;;12.90;;
26600;SDS011;14241;49.260;10.496;2024-01-15T10:25:50;20.13;;;13.68;;
26600;SDS011;14241;49.260;10.496;2024-01-15T10:28:16;22.08;;;14.85;;
26600;SDS011;14241;49.260;10.496;2024-01-15T10:30:41;19.55;;;14.18;;
26600;SDS011;14241;49.260;10.496;2024-01-15T10:33:06;22.02;;;13.98;;
26600;SDS011;14241;49.260;10.496;2024-01-15T10:35:32;20.73;;;14.18;;
26600;SDS011;14241;49.260;10.496;2024-01-15T10:37:58;19.73;;;14.05;;
26600;SDS011;14241;49.260;10.496;2024-01-15T10:40:24;18.65;;;13.63;;
26600;SDS011;14241;49.260;10.496;2024-01-15T10:42:49;20.13;;;13.70;;
26600;SDS011;14241;49.260;10.496;2024-01-15T10:45:15;22.25;;;13.65;;
26600;SDS011;14241;49.260;10.496;2024-01-15T10:47:40;21.63;;;14.77;;
26600;SDS011;14241;49.260;10.496;2024-01-15T10:50:06;21.90;;;13.35;;
26600;SDS011;14241;49.260;10.496;2024-01-15T10:52:33;20.40;;;12.65;;
26600;SDS011;14241;49.260;10.496;2024-01-15T10:54:59;20.08;;;13.43;;
26600;SDS011;14241;49.260;10.496;2024-01-15T10:57:25;19.17;;;12.50;;
26600;SDS011;14241;49.260;10.496;2024-01-15T10:59:51;17.88;;;12.60;;
26600;SDS011;14241;49.260;10.496;2024-01-15T11:02:16;17.98;;;13.15;;
26600;SDS011;14241;49.260;10.496;2024-01-15T11:04:42;20.50;;;13.02;;
26600;SDS011;14241;49.260;10.496;2024-01-15T11:07:07;17.55;;;12.45;;
26600;SDS011;14241;49.260;10.496;2024-01-15T11:09:32;20.38;;;13.93;;
26600;SDS011;14241;49.260;10.496;2024-01-15T11:12:10;17.13;;;12.75;;
26600;SDS011;14241;49.260;10.496;2024-01-15T11:17:04;17.45;;;12.65;;
26600;SDS011;14241;49.260;10.496;2024-01-15T11:19:37;20.77;;;14.10;;
26600;SDS011;14241;49.260;10.496;2024-01-15T11:22:05;20.05;;;13.98;;
26600;SDS011;14241;49.260;10.496;2024-01-15T11:24:34;19.25;;;14.13;;
26600;SDS011;14241;49.260;10.496;2024-01-15T11:27:03;17.23;;;13.27;;
26600;SDS011;14241;49.260;10.496;2024-01-15T11:37:09;18.35;;;12.90;;
26600;SDS011;14241;49.260;10.496;2024-01-15T11:39:41;18.85;;;12.88;;
26600;SDS011;14241;49.260;10.496;2024-01-15T11:42:10;19.38;;;12.48;;
26600;SDS011;14241;49.260;10.496;2024-01-15T11:44:36;19.50;;;13.35;;
26600;SDS011;14241;49.260;10.496;2024-01-15T11:47:03;18.95;;;12.40;;
26600;SDS011;14241;49.260;10.496;2024-01-15T11:52:12;18.98;;;13.45;;
26600;SDS011;14241;49.260;10.496;2024-01-15T11:54:40;19.55;;;12.43;;
26600;SDS011;14241;49.260;10.496;2024-01-15T11:57:10;17.58;;;13.52;;
26600;SDS011;14241;49.260;10.496;2024-01-15T11:59:40;18.40;;;12.82;;
26600;SDS011;14241;49.260;10.496;2024-01-15T12:02:05;17.05;;;12.27;;
26600;SDS011;14241;49.260;10.496;2024-01-15T12:04:31;17.40;;;13.00;;
26600;SDS011;14241;49.260;10.496;2024-01-15T12:06:57;17.23;;;11.32;;
26600;SDS011;14241;49.260;10.496;2024-01-15T12:09:22;17.48;;;11.52;;
26600;SDS011;14241;49.260;10.496;2024-01-15T12:11:51;15.93;;;11.45;;
26600;SDS011;14241;49.260;10.496;2024-01-15T12:14:18;14.35;;;10.38;;
26600;SDS011;14241;49.260;10.496;2024-01-15T12:16:43;15.55;;;11.75;;
26600;SDS011;14241;49.260;10.496;2024-01-15T12:19:09;17.70;;;12.30;;
26600;SDS011;14241;49.260;10.496;2024-01-15T12:21:34;15.90;;;11.25;;
26600;SDS011;14241;49.260;10.496;2024-01-15T12:23:59;16.63;;;11.55;;
26600;SDS011;14241;49.260;10.496;2024-01-15T12:26:24;15.27;;;11.00;;
26600;SDS011;14241;49.260;10.496;2024-01-15T12:28:50;15.95;;;12.07;;
26600;SDS011;14241;49.260;10.496;2024-01-15T12:31:16;18.02;;;11.90;;
26600;SDS011;14241;49.260;10.496;2024-01-15T12:33:41;17.13;;;12.20;;
26600;SDS011;14241;49.260;10.496;2024-01-15T12:36:07;15.43;;;12.00;;
26600;SDS011;14241;49.260;10.496;2024-01-15T12:38:32;17.45;;;12.45;;
26600;SDS011;14241;49.260;10.496;2024-01-15T12:40:57;17.23;;;12.38;;
26600;SDS011;14241;49.260;10.496;2024-01-15T12:43:22;15.30;;;11.23;;
26600;SDS011;14241;49.260;10.496;2024-01-15T12:45:48;17.63;;;11.63;;
26600;SDS011;14241;49.260;10.496;2024-01-15T12:48:14;17.42;;;10.90;;
26600;SDS011;14241;49.260;10.496;2024-01-15T12:50:42;16.75;;;11.80;;
26600;SDS011;14241;49.260;10.496;2024-01-15T12:53:07;14.77;;;11.57;;
26600;SDS011;14241;49.260;10.496;2024-01-15T12:55:33;14.68;;;11.18;;
26600;SDS011;14241;49.260;10.496;2024-01-15T12:57:59;18.23;;;11.02;;
26600;SDS011;14241;49.260;10.496;2024-01-15T13:00:25;14.40;;;10.30;;
26600;SDS011;14241;49.260;10.496;2024-01-15T13:02:51;13.65;;;10.90;;
26600;SDS011;14241;49.260;10.496;2024-01-15T13:05:16;17.25;;;12.00;;
26600;SDS011;14241;49.260;10.496;2024-01-15T13:07:42;16.70;;;11.50;;
26600;SDS011;14241;49.260;10.496;2024-01-15T13:10:08;16.17;;;11.95;;
26600;SDS011;14241;49.260;10.496;2024-01-15T13:12:34;16.92;;;11.82;;
26600;SDS011;14241;49.260;10.496;2024-01-15T13:14:59;15.10;;;11.15;;
26600;SDS011;14241;49.260;10.496;2024-01-15T13:17:25;16.25;;;11.73;;
26600;SDS011;14241;49.260;10.496;2024-01-15T13:19:50;14.15;;;10.93;;
26600;SDS011;14241;49.260;10.496;2024-01-15T13:22:15;15.25;;;11.05;;
26600;SDS011;14241;49.260;10.496;2024-01-15T13:24:41;13.07;;;10.68;;
26600;SDS011;14241;49.260;10.496;2024-01-15T13:27:06;15.23;;;11.35;;
26600;SDS011;14241;49.260;10.496;2024-01-15T13:29:32;14.05;;;10.63;;
26600;SDS011;14241;49.260;10.496;2024-01-15T13:31:57;14.30;;;11.23;;
26600;SDS011;14241;49.260;10.496;2024-01-15T13:34:23;16.38;;;10.63;;
26600;SDS011;14241;49.260;10.496;2024-01-15T13:36:48;15.98;;;10.50;;
26600;SDS011;14241;49.260;10.496;2024-01-15T13:39:15;13.02;;;10.35;;
26600;SDS011;14241;49.260;10.496;2024-01-15T13:41:45;13.90;;;10.30;;
26600;SDS011;14241;49.260;10.496;2024-01-15T13:44:10;14.13;;;9.82;;
26600;SDS011;14241;49.260;10.496;2024-01-15T13:46:35;17.30;;;11.15;;
26600;SDS011;14241;49.260;10.496;2024-01-15T13:49:03;12.13;;;9.38;;
26600;SDS011;14241;49.260;10.496;2024-01-15T13:51:31;15.30;;;10.65;;
26600;SDS011;14241;49.260;10.496;2024-01-15T13:53:56;14.95;;;10.40;;
26600;SDS011;14241;49.260;10.496;2024-01-15T13:56:21;12.85;;;9.75;;
26600;SDS011;14241;49.260;10.496;2024-01-15T13:58:47;14.48;;;9.48;;
26600;SDS011;14241;49.260;10.496;2024-01-15T14:01:13;10.93;;;8.75;;
26600;SDS011;14241;49.260;10.496;2024-01-15T14:03:38;12.80;;;9.82;;
26600;SDS011;14241;49.260;10.496;2024-01-15T14:06:04;11.45;;;8.38;;
26600;SDS011;14241;49.260;10.496;2024-01-15T14:08:33;11.80;;;9.23;;
26600;SDS011;14241;49.260;10.496;2024-01-15T14:10:59;11.40;;;8.75;;